Gainesville Regional Airport Gainesville US
ICAO: KGNV
IATA: GNV
Category: Medium
Scheduled Services: Yes

Elevation: 152 ft
TransAlt. 18000 ft.

Airport Communications:
JACKSONVILLE APP/DEP:118.175
ATIS:127.15
CTAF:119.55
GND:121.7
RDO:122.1
RDO:122.2
TWR:119.55
UNICOM:122.95

KGNV Zoom In..

If Map Doesn't Load, Click Here

Runways:

(A) RW 07 length 4158 ft width 100 ft
---- / hdg 65

(B) RW 11 length 7504 ft width 150 ft
---- / hdg 106

(C) RW 25 length 4158 ft width 100 ft
---- / hdg 245

(D) RW 29 length 7504 ft width 150 ft
ILS 111.30 / hdg 286

Location; KGNV
Day. 21 / Time. 13.53 Zulu
* Altimeter: 30.15
* Temperature: 29° c. 84.2°f.
* Wind from: 110° Speed 06 kn.
Dewpoint: 23° c.
Visibility: 10 Statute Miles.
Clouds: Clear (automated report).

KGNV 211353Z 11006KT 10SM CLR 29/23 A3015 RMK AO2 SLP205 T02890233


Wind From 110°
Speed 06 kn.

 
 
jpsmedia.com for Web Design worldairports.se 2018   terms of use